Chlef Aboubakr Belkaid International Airport

DAOI · Chlef, 阿尔及利亚

罗盘
风向 的 风向 060° Ech Cheliff Airport 7/25
风: 8 kt, 3 beaufort

8 kt

1 kt
改变
0 1.000 2.000 3.000 4.000 5.000
CAVOK
METAR DAOI 071800Z 06008KT CAVOK 26/11 Q1018

METAR Ech Cheliff Airport - DAOI/CFK

Ech Cheliff Airport是谢利夫,阿尔及利亚中的中型机场。 该机场有2条跑道: 7/25 和 8/26. 该领域的国际民航组织标志是DAOI 它的国际航空运输协会代码是CFK.

这份报告是针对2022年10月7日 19:00, 当地时间在Ech Cheliff Airport进行的。

机场观察

风向为060°,速度为8 kt。

天气为CAVOK。这意味着在5.000 ft或MSA(最低安全高度)以下(以较高者为准)以下没有云。这也意味着没有观测到积雨云或高耸的积云,可见度为10 km 或者更多或更高。此外,不会有雾,降雨或其他重要天气。

温度和风寒是26 °C。 露点为11 °C,相对湿度为39%。 海平面上的气压为1018 hPa (QNH)。

白天

今天,太阳从06:54升起,在18:30降落。 这适用于Ech Cheliff Airport,世界夏令时可能有所不同。 当地时间与世界标准时间之间的时差为+1 小时。 夏令时目前正在进行中。

公司介绍

我们没有关于这个机场的公司信息。

体会

到Vliegles.nl去找飞行课程,跳伞和其他飞行体验。 浏览页面,了解Ech Cheliff Airport附近所有可用的活动。 你也可以使用搜索功能来寻找你所在地附近的特定飞行课程、跳伞或其他飞行体验。

跑道

Id 标题 侧风 逆风 侧风 %
7/25 066°-246° 8 kt 10 %
8/26 080°-260° 3 kt 8 kt 34 %

逆风成分最大的方向会被突出显示,并用于横风计算。 这并不一定意味着这个方向在使用。

温度 & 天气

温度 26 °C
露点 11 °C
相对湿度 39%
Kp-index 0 (0-9)

白天

日出
06:54
中午
12:42
日落
18:30

小工具

你想在你的网站上有一个关于Ech Cheliff Airport的当前航空天气(METAR)的小部件吗?

</> 显示HTML代码

我们和第三方通过cookies跟踪您在我们网站上的上网行为。如果您继续,我们认为您同意我们的cookie政策。 了解更多